sensor_id;sensor_type;location;lat;lon;timestamp;temperature;humidity
14099;DHT22;7126;48.458;7.930;2023-03-02T00:01:40;4.10;99.90
14099;DHT22;7126;48.458;7.930;2023-03-02T00:04:20;4.10;99.90
14099;DHT22;7126;48.458;7.930;2023-03-02T00:06:47;4.10;99.90
14099;DHT22;7126;48.458;7.930;2023-03-02T00:09:15;4.10;99.90
14099;DHT22;7126;48.458;7.930;2023-03-02T00:11:40;4.00;99.90
14099;DHT22;7126;48.458;7.930;2023-03-02T00:14:06;4.10;99.90
14099;DHT22;7126;48.458;7.930;2023-03-02T00:16:32;4.10;99.90
14099;DHT22;7126;48.458;7.930;2023-03-02T00:18:58;4.10;99.90
14099;DHT22;7126;48.458;7.930;2023-03-02T00:21:23;4.10;99.90
14099;DHT22;7126;48.458;7.930;2023-03-02T00:23:49;4.10;99.90
14099;DHT22;7126;48.458;7.930;2023-03-02T00:26:16;4.00;99.90
14099;DHT22;7126;48.458;7.930;2023-03-02T00:28:41;4.00;99.90
14099;DHT22;7126;48.458;7.930;2023-03-02T00:31:07;4.00;99.90
14099;DHT22;7126;48.458;7.930;2023-03-02T00:33:33;4.10;99.90
14099;DHT22;7126;48.458;7.930;2023-03-02T00:35:59;4.10;99.90
14099;DHT22;7126;48.458;7.930;2023-03-02T00:38:25;4.00;99.90
14099;DHT22;7126;48.458;7.930;2023-03-02T00:40:52;4.00;99.90
14099;DHT22;7126;48.458;7.930;2023-03-02T00:43:19;3.90;99.90
14099;DHT22;7126;48.458;7.930;2023-03-02T00:45:47;3.80;99.90
14099;DHT22;7126;48.458;7.930;2023-03-02T00:48:13;3.80;99.90
14099;DHT22;7126;48.458;7.930;2023-03-02T00:50:38;3.80;99.90
14099;DHT22;7126;48.458;7.930;2023-03-02T00:53:09;3.80;99.90
14099;DHT22;7126;48.458;7.930;2023-03-02T00:55:35;3.70;99.90
14099;DHT22;7126;48.458;7.930;2023-03-02T00:58:02;3.70;99.90
14099;DHT22;7126;48.458;7.930;2023-03-02T01:00:28;3.70;99.90
14099;DHT22;7126;48.458;7.930;2023-03-02T01:02:54;3.70;99.90
14099;DHT22;7126;48.458;7.930;2023-03-02T01:05:20;3.70;99.90
14099;DHT22;7126;48.458;7.930;2023-03-02T01:07:45;3.60;99.90
14099;DHT22;7126;48.458;7.930;2023-03-02T01:10:12;3.50;99.90
14099;DHT22;7126;48.458;7.930;2023-03-02T01:12:37;3.50;99.90
14099;DHT22;7126;48.458;7.930;2023-03-02T01:15:04;3.50;99.90
14099;DHT22;7126;48.458;7.930;2023-03-02T01:17:30;3.50;99.90
14099;DHT22;7126;48.458;7.930;2023-03-02T01:19:56;3.40;99.90
14099;DHT22;7126;48.458;7.930;2023-03-02T01:22:22;3.40;99.90
14099;DHT22;7126;48.458;7.930;2023-03-02T01:24:48;3.40;99.90
14099;DHT22;7126;48.458;7.930;2023-03-02T01:27:14;3.40;99.90
14099;DHT22;7126;48.458;7.930;2023-03-02T01:29:40;3.30;99.90
14099;DHT22;7126;48.458;7.930;2023-03-02T01:32:06;3.30;99.90
14099;DHT22;7126;48.458;7.930;2023-03-02T01:34:32;3.20;99.90
14099;DHT22;7126;48.458;7.930;2023-03-02T01:36:57;3.10;99.90
14099;DHT22;7126;48.458;7.930;2023-03-02T01:39:23;3.10;99.90
14099;DHT22;7126;48.458;7.930;2023-03-02T01:41:51;3.10;99.90
14099;DHT22;7126;48.458;7.930;2023-03-02T01:46:57;3.10;99.90
14099;DHT22;7126;48.458;7.930;2023-03-02T01:49:22;3.10;99.90
14099;DHT22;7126;48.458;7.930;2023-03-02T01:51:48;3.10;99.90
14099;DHT22;7126;48.458;7.930;2023-03-02T01:54:18;3.10;99.90
14099;DHT22;7126;48.458;7.930;2023-03-02T01:56:49;3.10;99.90
14099;DHT22;7126;48.458;7.930;2023-03-02T01:59:18;3.10;99.90
14099;DHT22;7126;48.458;7.930;2023-03-02T02:01:48;3.00;99.90
14099;DHT22;7126;48.458;7.930;2023-03-02T02:04:15;3.00;99.90
14099;DHT22;7126;48.458;7.930;2023-03-02T02:06:55;3.00;99.90
14099;DHT22;7126;48.458;7.930;2023-03-02T02:09:23;2.90;99.90
14099;DHT22;7126;48.458;7.930;2023-03-02T02:11:49;3.00;99.90
14099;DHT22;7126;48.458;7.930;2023-03-02T02:14:15;3.00;99.90
14099;DHT22;7126;48.458;7.930;2023-03-02T02:16:40;3.00;99.90
14099;DHT22;7126;48.458;7.930;2023-03-02T02:19:17;2.90;99.90
14099;DHT22;7126;48.458;7.930;2023-03-02T02:21:47;2.90;99.90
14099;DHT22;7126;48.458;7.930;2023-03-02T02:24:30;2.90;99.90
14099;DHT22;7126;48.458;7.930;2023-03-02T02:26:58;2.90;99.90
14099;DHT22;7126;48.458;7.930;2023-03-02T02:29:30;2.90;99.90
14099;DHT22;7126;48.458;7.930;2023-03-02T02:32:10;2.90;99.90
14099;DHT22;7126;48.458;7.930;2023-03-02T02:34:42;2.90;99.90
14099;DHT22;7126;48.458;7.930;2023-03-02T02:40:13;2.90;99.90
14099;DHT22;7126;48.458;7.930;2023-03-02T02:42:43;2.90;99.90
14099;DHT22;7126;48.458;7.930;2023-03-02T02:45:35;2.80;99.90
14099;DHT22;7126;48.458;7.930;2023-03-02T02:48:01;2.80;99.90
14099;DHT22;7126;48.458;7.930;2023-03-02T02:50:30;2.70;99.90
14099;DHT22;7126;48.458;7.930;2023-03-02T02:53:02;2.70;99.90
14099;DHT22;7126;48.458;7.930;2023-03-02T02:55:30;2.70;99.90
14099;DHT22;7126;48.458;7.930;2023-03-02T02:57:58;2.70;99.90
14099;DHT22;7126;48.458;7.930;2023-03-02T03:00:25;2.70;99.90
14099;DHT22;7126;48.458;7.930;2023-03-02T03:03:04;2.60;99.90
14099;DHT22;7126;48.458;7.930;2023-03-02T03:05:31;2.60;99.90
14099;DHT22;7126;48.458;7.930;2023-03-02T03:08:07;2.60;99.90
14099;DHT22;7126;48.458;7.930;2023-03-02T03:10:35;2.60;99.90
14099;DHT22;7126;48.458;7.930;2023-03-02T03:13:06;2.60;99.90
14099;DHT22;7126;48.458;7.930;2023-03-02T03:15:33;2.50;99.90
14099;DHT22;7126;48.458;7.930;2023-03-02T03:17:59;2.40;99.90
14099;DHT22;7126;48.458;7.930;2023-03-02T03:20:26;2.40;99.90
14099;DHT22;7126;48.458;7.930;2023-03-02T03:22:52;2.30;99.90
14099;DHT22;7126;48.458;7.930;2023-03-02T03:25:19;2.30;99.90
14099;DHT22;7126;48.458;7.930;2023-03-02T03:27:44;2.30;99.90
14099;DHT22;7126;48.458;7.930;2023-03-02T03:30:12;2.30;99.90
14099;DHT22;7126;48.458;7.930;2023-03-02T03:32:38;2.20;99.90
14099;DHT22;7126;48.458;7.930;2023-03-02T03:35:04;2.20;99.90
14099;DHT22;7126;48.458;7.930;2023-03-02T03:37:33;2.30;99.90
14099;DHT22;7126;48.458;7.930;2023-03-02T03:39:59;2.30;99.90
14099;DHT22;7126;48.458;7.930;2023-03-02T03:42:25;2.20;99.90
14099;DHT22;7126;48.458;7.930;2023-03-02T03:44:50;2.20;99.90
14099;DHT22;7126;48.458;7.930;2023-03-02T03:47:16;2.20;99.90
14099;DHT22;7126;48.458;7.930;2023-03-02T03:49:41;2.20;99.90
14099;DHT22;7126;48.458;7.930;2023-03-02T03:52:07;2.20;99.90
14099;DHT22;7126;48.458;7.930;2023-03-02T03:54:32;2.20;99.90
14099;DHT22;7126;48.458;7.930;2023-03-02T03:56:58;2.20;99.90
14099;DHT22;7126;48.458;7.930;2023-03-02T03:59:24;2.30;99.90
14099;DHT22;7126;48.458;7.930;2023-03-02T04:01:53;2.20;99.90
14099;DHT22;7126;48.458;7.930;2023-03-02T04:04:22;2.10;99.90
14099;DHT22;7126;48.458;7.930;2023-03-02T04:06:48;2.00;99.90
14099;DHT22;7126;48.458;7.930;2023-03-02T04:09:14;2.00;99.90
14099;DHT22;7126;48.458;7.930;2023-03-02T04:11:43;2.10;99.90
14099;DHT22;7126;48.458;7.930;2023-03-02T04:14:10;2.10;99.90
14099;DHT22;7126;48.458;7.930;2023-03-02T04:16:36;2.10;99.90
14099;DHT22;7126;48.458;7.930;2023-03-02T04:19:03;2.20;99.90
14099;DHT22;7126;48.458;7.930;2023-03-02T04:21:37;2.10;99.90
14099;DHT22;7126;48.458;7.930;2023-03-02T04:24:03;2.10;99.90
14099;DHT22;7126;48.458;7.930;2023-03-02T04:26:28;2.00;99.90
14099;DHT22;7126;48.458;7.930;2023-03-02T04:28:54;2.10;99.90
14099;DHT22;7126;48.458;7.930;2023-03-02T04:31:19;2.20;99.90
14099;DHT22;7126;48.458;7.930;2023-03-02T04:33:45;2.10;99.90
14099;DHT22;7126;48.458;7.930;2023-03-02T04:36:10;2.00;99.90
14099;DHT22;7126;48.458;7.930;2023-03-02T04:38:36;1.90;99.90
14099;DHT22;7126;48.458;7.930;2023-03-02T04:41:02;1.80;99.90
14099;DHT22;7126;48.458;7.930;2023-03-02T04:43:28;1.80;99.90
14099;DHT22;7126;48.458;7.930;2023-03-02T04:45:54;1.80;99.90
14099;DHT22;7126;48.458;7.930;2023-03-02T04:48:20;1.90;99.90
14099;DHT22;7126;48.458;7.930;2023-03-02T04:50:46;1.90;99.90
14099;DHT22;7126;48.458;7.930;2023-03-02T04:53:11;1.90;99.90
14099;DHT22;7126;48.458;7.930;2023-03-02T04:55:38;1.80;99.90
14099;DHT22;7126;48.458;7.930;2023-03-02T04:58:04;1.90;99.90
14099;DHT22;7126;48.458;7.930;2023-03-02T05:00:30;1.90;99.90
14099;DHT22;7126;48.458;7.930;2023-03-02T05:02:58;1.90;99.90
14099;DHT22;7126;48.458;7.930;2023-03-02T05:05:25;1.80;99.90
14099;DHT22;7126;48.458;7.930;2023-03-02T05:07:51;1.70;99.90
14099;DHT22;7126;48.458;7.930;2023-03-02T05:10:18;1.50;99.90
14099;DHT22;7126;48.458;7.930;2023-03-02T05:12:43;1.30;99.90
14099;DHT22;7126;48.458;7.930;2023-03-02T05:15:21;1.30;99.90
14099;DHT22;7126;48.458;7.930;2023-03-02T05:17:46;1.40;99.90
14099;DHT22;7126;48.458;7.930;2023-03-02T05:20:12;1.30;99.90
14099;DHT22;7126;48.458;7.930;2023-03-02T05:22:38;1.30;99.90
14099;DHT22;7126;48.458;7.930;2023-03-02T05:25:04;1.30;99.90
14099;DHT22;7126;48.458;7.930;2023-03-02T05:27:30;1.20;99.90
14099;DHT22;7126;48.458;7.930;2023-03-02T05:29:55;0.90;99.90
14099;DHT22;7126;48.458;7.930;2023-03-02T05:32:21;0.80;99.90
14099;DHT22;7126;48.458;7.930;2023-03-02T05:34:46;0.90;99.90
14099;DHT22;7126;48.458;7.930;2023-03-02T05:37:12;0.80;99.90
14099;DHT22;7126;48.458;7.930;2023-03-02T05:39:37;0.80;99.90
14099;DHT22;7126;48.458;7.930;2023-03-02T05:42:03;0.80;99.90
14099;DHT22;7126;48.458;7.930;2023-03-02T05:44:30;0.70;99.90
14099;DHT22;7126;48.458;7.930;2023-03-02T05:46:55;0.60;99.90
14099;DHT22;7126;48.458;7.930;2023-03-02T05:49:21;0.60;99.90
14099;DHT22;7126;48.458;7.930;2023-03-02T05:51:46;0.50;99.90
14099;DHT22;7126;48.458;7.930;2023-03-02T05:54:12;0.40;99.90
14099;DHT22;7126;48.458;7.930;2023-03-02T05:56:37;0.40;99.90
14099;DHT22;7126;48.458;7.930;2023-03-02T05:59:03;0.60;99.90
14099;DHT22;7126;48.458;7.930;2023-03-02T06:01:28;0.80;99.90
14099;DHT22;7126;48.458;7.930;2023-03-02T06:03:54;0.90;99.90
14099;DHT22;7126;48.458;7.930;2023-03-02T06:06:20;0.80;99.90
14099;DHT22;7126;48.458;7.930;2023-03-02T06:08:46;0.70;99.90
14099;DHT22;7126;48.458;7.930;2023-03-02T06:11:11;0.70;99.90
14099;DHT22;7126;48.458;7.930;2023-03-02T06:13:37;0.70;99.90
14099;DHT22;7126;48.458;7.930;2023-03-02T06:16:03;0.80;99.90
14099;DHT22;7126;48.458;7.930;2023-03-02T06:18:29;0.80;99.90
14099;DHT22;7126;48.458;7.930;2023-03-02T06:20:54;0.80;99.90
14099;DHT22;7126;48.458;7.930;2023-03-02T06:23:20;0.60;99.90
14099;DHT22;7126;48.458;7.930;2023-03-02T06:25:46;0.50;99.90
14099;DHT22;7126;48.458;7.930;2023-03-02T06:28:14;0.70;99.90
14099;DHT22;7126;48.458;7.930;2023-03-02T06:30:40;0.80;99.90
14099;DHT22;7126;48.458;7.930;2023-03-02T06:33:06;0.80;99.90
14099;DHT22;7126;48.458;7.930;2023-03-02T06:35:31;0.80;99.90
14099;DHT22;7126;48.458;7.930;2023-03-02T06:37:57;0.80;99.90
14099;DHT22;7126;48.458;7.930;2023-03-02T06:40:23;0.80;99.90
14099;DHT22;7126;48.458;7.930;2023-03-02T06:42:49;0.90;99.90
14099;DHT22;7126;48.458;7.930;2023-03-02T06:45:14;0.90;99.90
14099;DHT22;7126;48.458;7.930;2023-03-02T06:47:40;1.00;99.90
14099;DHT22;7126;48.458;7.930;2023-03-02T06:50:07;1.00;99.90
14099;DHT22;7126;48.458;7.930;2023-03-02T06:52:33;1.00;99.90
14099;DHT22;7126;48.458;7.930;2023-03-02T06:54:59;1.10;99.90
14099;DHT22;7126;48.458;7.930;2023-03-02T06:57:25;1.10;99.90
14099;DHT22;7126;48.458;7.930;2023-03-02T06:59:58;1.10;99.90
14099;DHT22;7126;48.458;7.930;2023-03-02T07:02:23;1.20;99.90
14099;DHT22;7126;48.458;7.930;2023-03-02T07:04:49;1.20;99.90
14099;DHT22;7126;48.458;7.930;2023-03-02T07:07:14;1.20;99.90
14099;DHT22;7126;48.458;7.930;2023-03-02T07:09:40;1.10;99.90
14099;DHT22;7126;48.458;7.930;2023-03-02T07:12:06;1.20;99.90
14099;DHT22;7126;48.458;7.930;2023-03-02T07:14:34;1.30;99.90
14099;DHT22;7126;48.458;7.930;2023-03-02T07:16:59;1.40;99.90
14099;DHT22;7126;48.458;7.930;2023-03-02T07:19:25;1.50;99.90
14099;DHT22;7126;48.458;7.930;2023-03-02T07:21:51;1.50;99.90
14099;DHT22;7126;48.458;7.930;2023-03-02T07:24:16;1.50;99.90
14099;DHT22;7126;48.458;7.930;2023-03-02T07:26:42;1.50;99.90
14099;DHT22;7126;48.458;7.930;2023-03-02T07:29:07;1.60;99.90
14099;DHT22;7126;48.458;7.930;2023-03-02T07:31:33;1.60;99.90
14099;DHT22;7126;48.458;7.930;2023-03-02T07:33:58;1.70;99.90
14099;DHT22;7126;48.458;7.930;2023-03-02T07:36:24;1.80;99.90
14099;DHT22;7126;48.458;7.930;2023-03-02T07:38:50;1.90;99.90
14099;DHT22;7126;48.458;7.930;2023-03-02T07:41:16;2.00;99.90
14099;DHT22;7126;48.458;7.930;2023-03-02T07:43:41;2.10;99.90
14099;DHT22;7126;48.458;7.930;2023-03-02T07:46:07;2.20;99.90
14099;DHT22;7126;48.458;7.930;2023-03-02T07:48:33;2.20;99.90
14099;DHT22;7126;48.458;7.930;2023-03-02T07:51:00;2.20;99.90
14099;DHT22;7126;48.458;7.930;2023-03-02T07:53:26;2.30;99.90
14099;DHT22;7126;48.458;7.930;2023-03-02T07:55:52;2.40;99.90
14099;DHT22;7126;48.458;7.930;2023-03-02T07:58:17;2.40;99.90
14099;DHT22;7126;48.458;7.930;2023-03-02T08:00:43;2.50;99.90
14099;DHT22;7126;48.458;7.930;2023-03-02T08:03:08;2.60;99.90
14099;DHT22;7126;48.458;7.930;2023-03-02T08:05:34;2.70;99.90
14099;DHT22;7126;48.458;7.930;2023-03-02T08:07:59;2.80;99.90
14099;DHT22;7126;48.458;7.930;2023-03-02T08:10:25;2.90;99.90
14099;DHT22;7126;48.458;7.930;2023-03-02T08:12:51;3.00;99.90
14099;DHT22;7126;48.458;7.930;2023-03-02T08:15:16;3.00;99.90
14099;DHT22;7126;48.458;7.930;2023-03-02T08:17:42;3.10;99.90
14099;DHT22;7126;48.458;7.930;2023-03-02T08:20:08;3.20;99.90
14099;DHT22;7126;48.458;7.930;2023-03-02T08:22:34;3.30;99.90
14099;DHT22;7126;48.458;7.930;2023-03-02T08:25:00;3.30;99.90
14099;DHT22;7126;48.458;7.930;2023-03-02T08:27:25;3.40;99.90
14099;DHT22;7126;48.458;7.930;2023-03-02T08:29:51;3.50;99.90
14099;DHT22;7126;48.458;7.930;2023-03-02T08:32:18;3.60;99.90
14099;DHT22;7126;48.458;7.930;2023-03-02T08:34:44;3.70;99.90
14099;DHT22;7126;48.458;7.930;2023-03-02T08:37:09;3.70;99.90
14099;DHT22;7126;48.458;7.930;2023-03-02T08:39:35;3.90;99.90
14099;DHT22;7126;48.458;7.930;2023-03-02T08:42:01;3.90;99.90
14099;DHT22;7126;48.458;7.930;2023-03-02T08:44:26;4.00;99.90
14099;DHT22;7126;48.458;7.930;2023-03-02T08:46:52;4.10;99.90
14099;DHT22;7126;48.458;7.930;2023-03-02T08:49:18;4.20;99.90
14099;DHT22;7126;48.458;7.930;2023-03-02T08:51:44;4.20;99.90
14099;DHT22;7126;48.458;7.930;2023-03-02T08:54:10;4.20;99.90
14099;DHT22;7126;48.458;7.930;2023-03-02T08:56:37;4.30;99.90
14099;DHT22;7126;48.458;7.930;2023-03-02T08:59:06;4.30;99.90
14099;DHT22;7126;48.458;7.930;2023-03-02T09:01:35;4.30;99.90
14099;DHT22;7126;48.458;7.930;2023-03-02T09:04:01;4.30;99.90
14099;DHT22;7126;48.458;7.930;2023-03-02T09:06:28;4.40;99.90
14099;DHT22;7126;48.458;7.930;2023-03-02T09:08:54;4.50;99.90
14099;DHT22;7126;48.458;7.930;2023-03-02T09:11:20;4.60;99.90
14099;DHT22;7126;48.458;7.930;2023-03-02T09:13:46;4.60;99.90
14099;DHT22;7126;48.458;7.930;2023-03-02T09:16:12;4.70;99.90
14099;DHT22;7126;48.458;7.930;2023-03-02T09:18:38;4.80;99.90
14099;DHT22;7126;48.458;7.930;2023-03-02T09:21:04;4.90;99.90
14099;DHT22;7126;48.458;7.930;2023-03-02T09:23:30;5.00;99.90
14099;DHT22;7126;48.458;7.930;2023-03-02T09:25:56;5.10;99.90
14099;DHT22;7126;48.458;7.930;2023-03-02T09:28:22;5.10;99.90
14099;DHT22;7126;48.458;7.930;2023-03-02T09:30:58;5.10;99.90
14099;DHT22;7126;48.458;7.930;2023-03-02T09:33:25;5.30;99.90
14099;DHT22;7126;48.458;7.930;2023-03-02T09:35:51;5.30;99.90
14099;DHT22;7126;48.458;7.930;2023-03-02T09:38:17;5.40;99.90
14099;DHT22;7126;48.458;7.930;2023-03-02T09:41:54;5.40;99.90
14099;DHT22;7126;48.458;7.930;2023-03-02T09:44:01;5.40;99.90
14099;DHT22;7126;48.458;7.930;2023-03-02T09:46:50;5.40;99.90
14099;DHT22;7126;48.458;7.930;2023-03-02T09:49:27;5.50;99.90
14099;DHT22;7126;48.458;7.930;2023-03-02T09:55:16;5.50;99.90
14099;DHT22;7126;48.458;7.930;2023-03-02T09:57:43;5.40;99.90
14099;DHT22;7126;48.458;7.930;2023-03-02T10:00:14;5.40;99.90
14099;DHT22;7126;48.458;7.930;2023-03-02T10:02:53;5.40;99.90
14099;DHT22;7126;48.458;7.930;2023-03-02T10:05:37;5.50;99.90
14099;DHT22;7126;48.458;7.930;2023-03-02T10:08:03;5.50;99.90
14099;DHT22;7126;48.458;7.930;2023-03-02T10:10:41;5.60;99.90
14099;DHT22;7126;48.458;7.930;2023-03-02T10:16:12;5.60;99.90
14099;DHT22;7126;48.458;7.930;2023-03-02T10:18:48;5.60;99.90
14099;DHT22;7126;48.458;7.930;2023-03-02T10:21:28;5.60;99.90
14099;DHT22;7126;48.458;7.930;2023-03-02T10:23:57;5.70;99.90
14099;DHT22;7126;48.458;7.930;2023-03-02T10:26:43;5.80;99.90
14099;DHT22;7126;48.458;7.930;2023-03-02T10:29:42;5.80;99.90
14099;DHT22;7126;48.458;7.930;2023-03-02T10:32:32;5.80;99.90
14099;DHT22;7126;48.458;7.930;2023-03-02T10:35:04;5.70;99.90
14099;DHT22;7126;48.458;7.930;2023-03-02T10:37:35;5.80;99.90
14099;DHT22;7126;48.458;7.930;2023-03-02T10:40:00;5.90;99.90
14099;DHT22;7126;48.458;7.930;2023-03-02T10:42:30;6.00;99.90
14099;DHT22;7126;48.458;7.930;2023-03-02T10:45:24;6.00;99.90
14099;DHT22;7126;48.458;7.930;2023-03-02T10:48:06;6.20;99.90
14099;DHT22;7126;48.458;7.930;2023-03-02T10:50:32;6.20;99.90
14099;DHT22;7126;48.458;7.930;2023-03-02T10:52:58;6.20;99.90
14099;DHT22;7126;48.458;7.930;2023-03-02T10:55:24;6.10;99.90
14099;DHT22;7126;48.458;7.930;2023-03-02T11:00:43;6.10;99.90
14099;DHT22;7126;48.458;7.930;2023-03-02T11:03:21;6.20;99.90
14099;DHT22;7126;48.458;7.930;2023-03-02T11:05:47;6.10;99.90
14099;DHT22;7126;48.458;7.930;2023-03-02T11:08:22;6.10;99.90
14099;DHT22;7126;48.458;7.930;2023-03-02T11:11:00;6.20;99.90
14099;DHT22;7126;48.458;7.930;2023-03-02T11:13:29;6.20;99.90
14099;DHT22;7126;48.458;7.930;2023-03-02T11:15:57;6.30;99.90
14099;DHT22;7126;48.458;7.930;2023-03-02T11:18:34;6.20;99.90
14099;DHT22;7126;48.458;7.930;2023-03-02T11:21:04;6.20;99.90
14099;DHT22;7126;48.458;7.930;2023-03-02T11:23:57;6.20;99.90
14099;DHT22;7126;48.458;7.930;2023-03-02T11:26:55;6.20;99.90
14099;DHT22;7126;48.458;7.930;2023-03-02T11:32:21;6.30;99.90
14099;DHT22;7126;48.458;7.930;2023-03-02T11:35:18;6.30;99.90
14099;DHT22;7126;48.458;7.930;2023-03-02T11:37:52;6.30;99.90
14099;DHT22;7126;48.458;7.930;2023-03-02T11:42:55;6.50;99.90
14099;DHT22;7126;48.458;7.930;2023-03-02T11:45:37;6.60;99.90
14099;DHT22;7126;48.458;7.930;2023-03-02T11:51:02;6.50;99.90
14099;DHT22;7126;48.458;7.930;2023-03-02T11:53:40;6.60;99.90
14099;DHT22;7126;48.458;7.930;2023-03-02T11:56:07;6.50;99.90
14099;DHT22;7126;48.458;7.930;2023-03-02T11:58:33;6.50;99.90
14099;DHT22;7126;48.458;7.930;2023-03-02T12:01:00;6.50;99.90
14099;DHT22;7126;48.458;7.930;2023-03-02T12:06:04;6.60;99.90
14099;DHT22;7126;48.458;7.930;2023-03-02T12:08:35;6.60;99.90
14099;DHT22;7126;48.458;7.930;2023-03-02T12:13:44;6.80;99.90
14099;DHT22;7126;48.458;7.930;2023-03-02T12:16:22;6.90;99.90
14099;DHT22;7126;48.458;7.930;2023-03-02T12:18:50;6.90;99.90
14099;DHT22;7126;48.458;7.930;2023-03-02T12:21:21;7.00;99.90
14099;DHT22;7126;48.458;7.930;2023-03-02T12:31:57;6.90;99.90
14099;DHT22;7126;48.458;7.930;2023-03-02T12:35:02;7.00;99.90
14099;DHT22;7126;48.458;7.930;2023-03-02T12:43:18;7.10;99.90
14099;DHT22;7126;48.458;7.930;2023-03-02T12:48:51;7.20;99.90
14099;DHT22;7126;48.458;7.930;2023-03-02T12:51:23;7.20;99.90
14099;DHT22;7126;48.458;7.930;2023-03-02T12:54:10;7.20;99.90
14099;DHT22;7126;48.458;7.930;2023-03-02T12:56:36;7.20;99.90
14099;DHT22;7126;48.458;7.930;2023-03-02T12:59:02;7.30;99.90
14099;DHT22;7126;48.458;7.930;2023-03-02T13:01:30;7.30;99.90
14099;DHT22;7126;48.458;7.930;2023-03-02T13:03:56;7.20;99.90
14099;DHT22;7126;48.458;7.930;2023-03-02T13:06:24;7.30;99.90
14099;DHT22;7126;48.458;7.930;2023-03-02T13:08:54;7.30;99.90
14099;DHT22;7126;48.458;7.930;2023-03-02T13:11:32;7.40;99.90
14099;DHT22;7126;48.458;7.930;2023-03-02T13:14:01;7.40;99.90
14099;DHT22;7126;48.458;7.930;2023-03-02T13:16:41;7.40;99.90
14099;DHT22;7126;48.458;7.930;2023-03-02T13:19:12;7.50;99.90
14099;DHT22;7126;48.458;7.930;2023-03-02T13:21:40;7.60;99.90
14099;DHT22;7126;48.458;7.930;2023-03-02T13:26:58;7.50;99.90
14099;DHT22;7126;48.458;7.930;2023-03-02T13:29:27;7.50;99.90
14099;DHT22;7126;48.458;7.930;2023-03-02T13:31:56;7.50;99.90
14099;DHT22;7126;48.458;7.930;2023-03-02T13:34:26;7.60;99.90
14099;DHT22;7126;48.458;7.930;2023-03-02T13:36:53;7.60;99.90
14099;DHT22;7126;48.458;7.930;2023-03-02T13:39:26;7.50;99.90
14099;DHT22;7126;48.458;7.930;2023-03-02T13:42:02;7.50;99.90
14099;DHT22;7126;48.458;7.930;2023-03-02T13:44:33;7.50;99.90
14099;DHT22;7126;48.458;7.930;2023-03-02T13:46:59;7.50;99.90
14099;DHT22;7126;48.458;7.930;2023-03-02T13:49:30;7.50;99.90
14099;DHT22;7126;48.458;7.930;2023-03-02T13:52:12;7.50;99.90
14099;DHT22;7126;48.458;7.930;2023-03-02T13:54:42;7.50;99.90
14099;DHT22;7126;48.458;7.930;2023-03-02T13:57:15;7.50;99.90
14099;DHT22;7126;48.458;7.930;2023-03-02T13:59:42;7.50;99.90
14099;DHT22;7126;48.458;7.930;2023-03-02T14:02:22;7.50;99.90
14099;DHT22;7126;48.458;7.930;2023-03-02T14:04:48;7.50;99.90
14099;DHT22;7126;48.458;7.930;2023-03-02T14:07:13;7.50;99.90
14099;DHT22;7126;48.458;7.930;2023-03-02T14:09:39;7.50;99.90
14099;DHT22;7126;48.458;7.930;2023-03-02T14:12:05;7.50;99.90
14099;DHT22;7126;48.458;7.930;2023-03-02T14:14:34;7.60;99.90
14099;DHT22;7126;48.458;7.930;2023-03-02T14:17:03;7.60;99.90
14099;DHT22;7126;48.458;7.930;2023-03-02T14:19:30;7.60;99.90
14099;DHT22;7126;48.458;7.930;2023-03-02T14:21:56;7.60;99.90
14099;DHT22;7126;48.458;7.930;2023-03-02T14:24:21;7.60;99.90
14099;DHT22;7126;48.458;7.930;2023-03-02T14:26:48;7.60;99.90
14099;DHT22;7126;48.458;7.930;2023-03-02T14:29:29;7.60;99.90
14099;DHT22;7126;48.458;7.930;2023-03-02T14:31:57;7.60;99.90
14099;DHT22;7126;48.458;7.930;2023-03-02T14:34:28;7.60;99.90
14099;DHT22;7126;48.458;7.930;2023-03-02T14:36:55;7.60;99.90
14099;DHT22;7126;48.458;7.930;2023-03-02T14:39:29;7.60;99.90
14099;DHT22;7126;48.458;7.930;2023-03-02T14:41:56;7.50;99.90
14099;DHT22;7126;48.458;7.930;2023-03-02T14:44:22;7.50;99.90
14099;DHT22;7126;48.458;7.930;2023-03-02T14:46:48;7.40;99.90
14099;DHT22;7126;48.458;7.930;2023-03-02T14:49:13;7.50;99.90
14099;DHT22;7126;48.458;7.930;2023-03-02T14:51:40;7.60;99.90
14099;DHT22;7126;48.458;7.930;2023-03-02T14:54:13;7.60;99.90
14099;DHT22;7126;48.458;7.930;2023-03-02T14:56:41;7.60;99.90
14099;DHT22;7126;48.458;7.930;2023-03-02T14:59:08;7.70;99.90
14099;DHT22;7126;48.458;7.930;2023-03-02T15:01:36;7.70;99.90
14099;DHT22;7126;48.458;7.930;2023-03-02T15:04:01;7.60;99.90
14099;DHT22;7126;48.458;7.930;2023-03-02T15:06:34;7.60;99.90
14099;DHT22;7126;48.458;7.930;2023-03-02T15:09:02;7.70;99.90
14099;DHT22;7126;48.458;7.930;2023-03-02T15:11:28;7.70;99.90
14099;DHT22;7126;48.458;7.930;2023-03-02T15:13:53;7.60;99.90
14099;DHT22;7126;48.458;7.930;2023-03-02T15:16:20;7.60;99.90
14099;DHT22;7126;48.458;7.930;2023-03-02T15:18:48;7.60;99.90
14099;DHT22;7126;48.458;7.930;2023-03-02T15:21:16;7.50;99.90
14099;DHT22;7126;48.458;7.930;2023-03-02T15:23:42;7.50;99.90
14099;DHT22;7126;48.458;7.930;2023-03-02T15:26:09;7.50;99.90
14099;DHT22;7126;48.458;7.930;2023-03-02T15:28:34;7.50;99.90
14099;DHT22;7126;48.458;7.930;2023-03-02T15:31:13;7.60;99.90
14099;DHT22;7126;48.458;7.930;2023-03-02T15:33:40;7.60;99.90
14099;DHT22;7126;48.458;7.930;2023-03-02T15:36:06;7.60;99.90
14099;DHT22;7126;48.458;7.930;2023-03-02T15:38:33;7.70;99.90
14099;DHT22;7126;48.458;7.930;2023-03-02T15:41:04;7.60;99.90
14099;DHT22;7126;48.458;7.930;2023-03-02T15:43:30;7.60;99.90
14099;DHT22;7126;48.458;7.930;2023-03-02T15:45:55;7.50;99.90
14099;DHT22;7126;48.458;7.930;2023-03-02T15:48:21;7.40;99.90
14099;DHT22;7126;48.458;7.930;2023-03-02T15:51:04;7.50;99.90
14099;DHT22;7126;48.458;7.930;2023-03-02T15:53:31;7.50;99.90
14099;DHT22;7126;48.458;7.930;2023-03-02T15:55:57;7.50;99.90
14099;DHT22;7126;48.458;7.930;2023-03-02T15:58:23;7.50;99.90
14099;DHT22;7126;48.458;7.930;2023-03-02T16:00:49;7.60;99.90
14099;DHT22;7126;48.458;7.930;2023-03-02T16:03:15;7.60;99.90
14099;DHT22;7126;48.458;7.930;2023-03-02T16:05:41;7.60;99.90
14099;DHT22;7126;48.458;7.930;2023-03-02T16:08:07;7.50;99.90
14099;DHT22;7126;48.458;7.930;2023-03-02T16:10:33;7.40;99.90
14099;DHT22;7126;48.458;7.930;2023-03-02T16:13:04;7.30;99.90
14099;DHT22;7126;48.458;7.930;2023-03-02T16:15:35;7.30;99.90
14099;DHT22;7126;48.458;7.930;2023-03-02T16:18:01;7.20;99.90
14099;DHT22;7126;48.458;7.930;2023-03-02T16:20:26;7.20;99.90
14099;DHT22;7126;48.458;7.930;2023-03-02T16:22:52;7.20;99.90
14099;DHT22;7126;48.458;7.930;2023-03-02T16:25:17;7.20;99.90
14099;DHT22;7126;48.458;7.930;2023-03-02T16:27:44;7.30;99.90
14099;DHT22;7126;48.458;7.930;2023-03-02T16:30:13;7.40;99.90
14099;DHT22;7126;48.458;7.930;2023-03-02T16:32:39;7.40;99.90
14099;DHT22;7126;48.458;7.930;2023-03-02T16:35:07;7.40;99.90
14099;DHT22;7126;48.458;7.930;2023-03-02T16:37:33;7.40;99.90
14099;DHT22;7126;48.458;7.930;2023-03-02T16:39:59;7.40;99.90
14099;DHT22;7126;48.458;7.930;2023-03-02T16:42:24;7.40;99.90
14099;DHT22;7126;48.458;7.930;2023-03-02T16:44:50;7.30;99.90
14099;DHT22;7126;48.458;7.930;2023-03-02T16:47:15;7.20;99.90
14099;DHT22;7126;48.458;7.930;2023-03-02T16:49:41;7.10;99.90
14099;DHT22;7126;48.458;7.930;2023-03-02T16:52:06;7.00;99.90
14099;DHT22;7126;48.458;7.930;2023-03-02T16:54:32;6.90;99.90
14099;DHT22;7126;48.458;7.930;2023-03-02T16:56:57;6.80;99.90
14099;DHT22;7126;48.458;7.930;2023-03-02T16:59:23;6.70;99.90